Time;durP1;ratioP1;P1;durP2;ratioP2;P2;SDS_P1;SDS_P2;PMS_P1;PMS_P2;Temp;Humidity;BMP_temperature;BMP_pressure;BME280_temperature;BME280_humidity;BME280_pressure;Samples;Min_cycle;Max_cycle;Signal;HPM_P1;HPM_P2
2022/11/29 00:02:00;;;;;;;43.17;23.00;;;;;;;;;;5114484;28;20767;-69
2022/11/29 00:04:27;;;;;;;39.60;23.53;;;;;;;;;;5114000;28;20443;-69
2022/11/29 00:06:55;;;;;;;42.73;22.47;;;;;;;;;;5113668;28;20528;-70
2022/11/29 00:09:23;;;;;;;41.57;20.63;;;;;;;;;;5113448;28;20442;-70
2022/11/29 00:14:34;;;;;;;37.50;20.63;;;;;;;;;;5114090;28;20206;-70
2022/11/29 00:17:03;;;;;;;42.10;21.63;;;;;;;;;;5113492;28;20689;-70
2022/11/29 00:19:30;;;;;;;39.10;19.80;;;;;;;;;;5113842;28;20457;-70
2022/11/29 00:21:59;;;;;;;48.77;23.33;;;;;;;;;;5113573;28;20443;-70
2022/11/29 00:24:26;;;;;;;38.00;21.67;;;;;;;;;;5113756;28;20447;-69
2022/11/29 00:26:53;;;;;;;41.03;21.43;;;;;;;;;;5113731;28;20204;-69
2022/11/29 00:29:20;;;;;;;34.50;20.10;;;;;;;;;;5113376;28;20917;-69
2022/11/29 00:31:47;;;;;;;38.17;21.17;;;;;;;;;;5113686;28;20457;-70
2022/11/29 00:34:14;;;;;;;34.97;21.50;;;;;;;;;;5113710;28;20445;-69
2022/11/29 00:36:42;;;;;;;48.03;22.17;;;;;;;;;;5113234;28;20222;-70
2022/11/29 00:39:11;;;;;;;38.63;21.63;;;;;;;;;;5113669;28;20477;-69
2022/11/29 00:41:38;;;;;;;35.30;21.83;;;;;;;;;;5112996;28;20447;-69
2022/11/29 00:44:06;;;;;;;41.37;22.97;;;;;;;;;;5113605;28;20443;-69
2022/11/29 00:46:33;;;;;;;39.30;22.37;;;;;;;;;;5113602;28;20526;-69
2022/11/29 00:49:00;;;;;;;46.53;23.10;;;;;;;;;;5114432;28;20439;-70
2022/11/29 00:51:27;;;;;;;39.13;19.47;;;;;;;;;;5113210;28;20443;-69
2022/11/29 00:53:55;;;;;;;40.40;21.80;;;;;;;;;;5113274;28;20928;-70
2022/11/29 00:56:23;;;;;;;42.30;22.93;;;;;;;;;;5113083;28;20987;-69
2022/11/29 00:58:50;;;;;;;56.40;23.87;;;;;;;;;;5113192;28;20450;-69
2022/11/29 01:01:18;;;;;;;48.35;24.42;;;;;;;;;;5113014;28;20449;-69
2022/11/29 01:03:45;;;;;;;46.13;22.25;;;;;;;;;;5113415;28;20206;-69
2022/11/29 01:06:14;;;;;;;46.40;21.83;;;;;;;;;;5113392;28;20564;-69
2022/11/29 01:08:41;;;;;;;41.45;22.80;;;;;;;;;;5113469;28;20435;-69
2022/11/29 01:11:11;;;;;;;41.40;23.05;;;;;;;;;;5113501;28;20193;-69
2022/11/29 01:13:40;;;;;;;40.08;22.52;;;;;;;;;;5113398;28;20185;-69
2022/11/29 01:16:07;;;;;;;41.80;21.60;;;;;;;;;;5113262;28;20671;-70
2022/11/29 01:18:35;;;;;;;57.50;25.47;;;;;;;;;;5113359;28;20441;-69
2022/11/29 01:21:03;;;;;;;44.17;22.75;;;;;;;;;;5116551;28;20439;-69
2022/11/29 01:23:30;;;;;;;51.00;23.40;;;;;;;;;;5117462;28;20215;-69
2022/11/29 01:25:59;;;;;;;48.20;23.13;;;;;;;;;;5117375;28;20439;-69
2022/11/29 01:28:26;;;;;;;50.23;24.60;;;;;;;;;;5117126;28;20446;-70
2022/11/29 01:30:55;;;;;;;54.37;25.17;;;;;;;;;;5116684;28;20794;-69
2022/11/29 01:33:22;;;;;;;39.77;22.07;;;;;;;;;;5117226;28;20431;-69
2022/11/29 01:35:49;;;;;;;52.07;25.70;;;;;;;;;;5116640;28;20442;-70
2022/11/29 01:38:17;;;;;;;48.60;23.47;;;;;;;;;;5116264;28;20474;-69
2022/11/29 01:40:45;;;;;;;48.40;26.13;;;;;;;;;;5116636;28;20477;-69
2022/11/29 01:43:14;;;;;;;54.00;25.83;;;;;;;;;;5116257;28;20224;-69
2022/11/29 01:45:41;;;;;;;49.67;24.60;;;;;;;;;;5116227;28;20488;-69
2022/11/29 01:48:10;;;;;;;75.68;26.60;;;;;;;;;;5116544;28;20454;-69
2022/11/29 01:50:38;;;;;;;62.20;26.30;;;;;;;;;;5116918;28;20197;-69
2022/11/29 01:53:05;;;;;;;64.25;28.33;;;;;;;;;;5116142;28;20449;-69
2022/11/29 01:55:33;;;;;;;80.37;28.97;;;;;;;;;;5116062;28;20188;-69
2022/11/29 01:58:01;;;;;;;74.03;28.10;;;;;;;;;;5115990;28;20474;-69
2022/11/29 02:00:28;;;;;;;61.67;27.17;;;;;;;;;;5116726;28;20431;-69
2022/11/29 02:02:57;;;;;;;88.90;30.53;;;;;;;;;;5116102;28;20458;-69
2022/11/29 02:05:26;;;;;;;78.97;27.10;;;;;;;;;;5115843;28;20515;-69
2022/11/29 02:07:55;;;;;;;74.33;28.53;;;;;;;;;;5116026;27;20442;-69
2022/11/29 02:10:26;;;;;;;82.32;27.15;;;;;;;;;;5115699;28;20442;-69
2022/11/29 02:12:57;;;;;;;67.37;27.40;;;;;;;;;;5116037;28;20303;-69
2022/11/29 02:15:29;;;;;;;73.22;28.70;;;;;;;;;;5116532;28;20782;-69
2022/11/29 02:18:01;;;;;;;72.73;26.90;;;;;;;;;;5115649;28;20756;-70
2022/11/29 02:20:43;;;;;;;101.07;31.17;;;;;;;;;;5116107;28;20481;-69
2022/11/29 02:23:20;;;;;;;128.13;31.40;;;;;;;;;;5115847;28;20539;-69
2022/11/29 02:25:58;;;;;;;139.63;30.50;;;;;;;;;;5115992;28;20269;-69
2022/11/29 02:28:43;;;;;;;164.05;33.50;;;;;;;;;;5116302;28;20784;-69
2022/11/29 02:31:29;;;;;;;124.90;30.30;;;;;;;;;;5114658;28;20184;-70
2022/11/29 02:34:19;;;;;;;72.28;28.52;;;;;;;;;;5116220;28;20196;-69
2022/11/29 02:36:51;;;;;;;79.63;26.80;;;;;;;;;;5115202;28;20278;-69
2022/11/29 02:39:31;;;;;;;85.32;32.03;;;;;;;;;;5115340;28;20423;-69
2022/11/29 02:42:07;;;;;;;89.72;29.25;;;;;;;;;;5114860;28;20695;-69
2022/11/29 02:44:53;;;;;;;102.05;28.05;;;;;;;;;;5115481;28;20177;-69
2022/11/29 02:47:26;;;;;;;82.37;27.40;;;;;;;;;;5114958;28;20203;-70
2022/11/29 02:50:08;;;;;;;70.90;28.95;;;;;;;;;;5115342;28;20986;-69
2022/11/29 02:52:39;;;;;;;82.25;29.27;;;;;;;;;;5112555;28;20193;-69
2022/11/29 02:55:09;;;;;;;96.25;30.42;;;;;;;;;;5115371;28;20555;-70
2022/11/29 02:57:39;;;;;;;90.43;27.37;;;;;;;;;;5114890;28;20216;-69
2022/11/29 03:00:08;;;;;;;92.57;30.27;;;;;;;;;;5115123;28;20442;-69
2022/11/29 03:02:39;;;;;;;84.20;27.95;;;;;;;;;;5114951;28;20591;-69
2022/11/29 03:05:12;;;;;;;82.60;29.80;;;;;;;;;;5115285;28;20185;-69
2022/11/29 03:07:45;;;;;;;81.60;26.97;;;;;;;;;;5114857;28;20191;-69
2022/11/29 03:10:19;;;;;;;81.57;28.50;;;;;;;;;;5115371;28;20427;-69
2022/11/29 03:12:47;;;;;;;85.03;26.10;;;;;;;;;;5114885;28;20786;-69
2022/11/29 03:15:20;;;;;;;107.57;31.60;;;;;;;;;;5114506;28;20943;-69
2022/11/29 03:17:55;;;;;;;108.00;30.33;;;;;;;;;;5114952;28;20212;-69
2022/11/29 03:20:27;;;;;;;87.68;27.45;;;;;;;;;;5115326;28;20184;-69
2022/11/29 03:23:03;;;;;;;96.18;29.83;;;;;;;;;;5114306;28;20192;-69
2022/11/29 03:25:33;;;;;;;89.37;27.53;;;;;;;;;;5114693;28;20181;-69
2022/11/29 03:28:03;;;;;;;86.23;25.73;;;;;;;;;;5115095;28;20450;-69
2022/11/29 03:30:33;;;;;;;118.67;29.70;;;;;;;;;;5114658;28;20430;-69
2022/11/29 03:33:02;;;;;;;80.27;26.47;;;;;;;;;;5114392;28;20456;-69
2022/11/29 03:35:34;;;;;;;110.18;28.58;;;;;;;;;;5114146;28;20924;-70
2022/11/29 03:38:07;;;;;;;84.67;28.23;;;;;;;;;;5114010;28;20688;-69
2022/11/29 03:40:40;;;;;;;91.37;25.53;;;;;;;;;;5114923;28;20785;-69
2022/11/29 03:43:08;;;;;;;86.70;26.33;;;;;;;;;;5114263;28;20772;-69
2022/11/29 03:45:37;;;;;;;92.13;28.17;;;;;;;;;;5114446;28;20442;-69
2022/11/29 03:48:07;;;;;;;94.40;27.73;;;;;;;;;;5114151;28;20287;-69
2022/11/29 03:50:37;;;;;;;95.95;29.00;;;;;;;;;;5114191;28;20439;-69
2022/11/29 03:53:08;;;;;;;97.72;29.48;;;;;;;;;;5114411;28;20199;-69
2022/11/29 03:55:48;;;;;;;109.20;27.57;;;;;;;;;;5114242;28;20664;-69
2022/11/29 03:58:20;;;;;;;100.17;28.37;;;;;;;;;;5114111;28;20470;-69
2022/11/29 04:00:57;;;;;;;100.95;29.52;;;;;;;;;;5114070;28;20423;-69
2022/11/29 04:03:33;;;;;;;94.43;28.67;;;;;;;;;;5114134;28;20183;-69
2022/11/29 04:06:18;;;;;;;119.40;28.83;;;;;;;;;;5114221;28;20509;-69
2022/11/29 04:09:03;;;;;;;104.68;26.75;;;;;;;;;;5113573;28;20187;-69
2022/11/29 04:11:54;;;;;;;90.80;26.25;;;;;;;;;;5114055;28;20279;-69
2022/11/29 04:14:28;;;;;;;90.83;25.00;;;;;;;;;;5113808;28;20231;-69
2022/11/29 04:17:05;;;;;;;99.33;28.60;;;;;;;;;;5113823;28;20528;-69
2022/11/29 04:19:47;;;;;;;97.60;27.17;;;;;;;;;;5113912;28;20432;-69
2022/11/29 04:22:24;;;;;;;82.80;25.67;;;;;;;;;;5113558;28;20423;-69
2022/11/29 04:25:09;;;;;;;74.60;24.87;;;;;;;;;;5114056;28;20433;-69
2022/11/29 04:27:41;;;;;;;85.07;25.50;;;;;;;;;;5114166;28;20438;-69
2022/11/29 04:30:11;;;;;;;77.00;25.73;;;;;;;;;;5114278;28;20246;-69
2022/11/29 04:32:45;;;;;;;90.82;26.30;;;;;;;;;;5113538;28;20199;-69
2022/11/29 04:35:27;;;;;;;104.90;25.90;;;;;;;;;;5114501;28;20185;-69
2022/11/29 04:38:07;;;;;;;86.70;26.30;;;;;;;;;;5113690;28;20509;-69
2022/11/29 04:40:50;;;;;;;82.57;25.87;;;;;;;;;;5113934;28;20462;-70
2022/11/29 04:43:30;;;;;;;77.90;27.03;;;;;;;;;;5113029;28;20470;-70
2022/11/29 04:46:11;;;;;;;83.38;25.77;;;;;;;;;;5114192;28;20438;-69
2022/11/29 04:48:47;;;;;;;95.43;24.77;;;;;;;;;;5113608;28;20189;-69
2022/11/29 04:51:19;;;;;;;88.88;23.88;;;;;;;;;;5114197;28;20438;-69
2022/11/29 04:53:52;;;;;;;82.17;23.50;;;;;;;;;;5112322;28;20199;-69
2022/11/29 04:56:24;;;;;;;71.53;21.73;;;;;;;;;;5117200;28;20430;-70
2022/11/29 04:58:55;;;;;;;90.17;24.70;;;;;;;;;;5117854;28;20466;-70
2022/11/29 05:01:27;;;;;;;82.60;22.60;;;;;;;;;;5117507;28;20435;-69
2022/11/29 05:03:59;;;;;;;74.50;20.80;;;;;;;;;;5117496;28;20422;-69
2022/11/29 05:06:29;;;;;;;84.27;20.00;;;;;;;;;;5117506;28;20439;-69
2022/11/29 05:09:01;;;;;;;68.97;21.40;;;;;;;;;;5117317;28;20525;-69
2022/11/29 05:11:35;;;;;;;61.07;20.33;;;;;;;;;;5116671;28;20941;-69
2022/11/29 05:14:08;;;;;;;70.23;21.07;;;;;;;;;;5117055;28;20514;-69
2022/11/29 05:16:42;;;;;;;66.10;20.73;;;;;;;;;;5116729;28;20458;-69
2022/11/29 05:19:15;;;;;;;74.10;21.13;;;;;;;;;;5116633;28;20462;-70
2022/11/29 05:21:48;;;;;;;69.53;20.20;;;;;;;;;;5116854;28;20423;-70
2022/11/29 05:24:20;;;;;;;88.87;21.30;;;;;;;;;;5116771;28;20531;-70
2022/11/29 05:26:52;;;;;;;79.60;22.90;;;;;;;;;;5117195;28;20431;-70
2022/11/29 05:29:23;;;;;;;82.03;21.00;;;;;;;;;;5117065;28;20439;-69
2022/11/29 05:31:56;;;;;;;78.40;21.70;;;;;;;;;;5116736;28;20662;-70
2022/11/29 05:34:31;;;;;;;68.83;20.50;;;;;;;;;;5116689;28;20819;-70
2022/11/29 05:37:03;;;;;;;68.30;20.47;;;;;;;;;;5116840;28;20437;-70
2022/11/29 05:39:35;;;;;;;68.93;20.47;;;;;;;;;;5116834;28;20431;-69
2022/11/29 05:42:18;;;;;;;53.67;19.83;;;;;;;;;;5116612;28;20478;-69
2022/11/29 05:44:48;;;;;;;63.27;20.47;;;;;;;;;;5082702;28;20802;-69
2022/11/29 05:47:18;;;;;;;66.93;20.93;;;;;;;;;;5116840;28;20453;-69
2022/11/29 05:49:49;;;;;;;60.50;19.47;;;;;;;;;;5116035;28;20453;-69
2022/11/29 05:52:21;;;;;;;69.17;21.87;;;;;;;;;;5116240;28;20443;-69
2022/11/29 05:54:55;;;;;;;67.63;21.60;;;;;;;;;;5116219;28;20477;-70
2022/11/29 05:57:27;;;;;;;69.67;21.67;;;;;;;;;;5116037;28;20518;-69
2022/11/29 05:59:56;;;;;;;83.23;21.80;;;;;;;;;;5116298;28;20435;-70
2022/11/29 06:02:30;;;;;;;72.70;23.70;;;;;;;;;;5116234;28;20438;-69
2022/11/29 06:05:06;;;;;;;81.50;23.50;;;;;;;;;;5115801;28;20423;-69
2022/11/29 06:07:38;;;;;;;73.33;23.03;;;;;;;;;;5115278;28;20447;-70
2022/11/29 06:10:06;;;;;;;85.33;22.90;;;;;;;;;;5115976;28;20431;-70
2022/11/29 06:12:36;;;;;;;66.10;23.30;;;;;;;;;;5116972;28;20440;-70
2022/11/29 06:15:24;;;;;;;63.57;23.20;;;;;;;;;;5116022;28;20787;-74
2022/11/29 06:17:58;;;;;;;70.23;22.07;;;;;;;;;;5115650;28;20463;-70
2022/11/29 06:20:33;;;;;;;67.00;22.73;;;;;;;;;;5115934;28;20431;-70
2022/11/29 06:23:18;;;;;;;72.27;24.00;;;;;;;;;;5116338;28;20429;-70
2022/11/29 06:25:52;;;;;;;78.77;23.43;;;;;;;;;;5116027;28;20455;-70
2022/11/29 06:28:28;;;;;;;63.13;22.10;;;;;;;;;;5116457;28;20427;-70
2022/11/29 06:31:00;;;;;;;71.97;20.70;;;;;;;;;;5115850;28;20541;-70
2022/11/29 06:33:32;;;;;;;73.93;22.23;;;;;;;;;;5116046;28;20419;-70
2022/11/29 06:36:08;;;;;;;74.37;22.20;;;;;;;;;;5115849;28;20779;-70
2022/11/29 06:38:35;;;;;;;91.17;23.07;;;;;;;;;;5115836;28;20470;-70
2022/11/29 06:41:03;;;;;;;68.20;20.17;;;;;;;;;;5115131;28;20445;-70
2022/11/29 06:43:30;;;;;;;80.13;25.27;;;;;;;;;;5115465;28;20463;-70
2022/11/29 06:46:01;;;;;;;56.50;20.33;;;;;;;;;;5114996;28;20916;-70
2022/11/29 06:48:30;;;;;;;71.73;24.10;;;;;;;;;;5115113;28;20523;-70
2022/11/29 06:51:01;;;;;;;68.60;20.63;;;;;;;;;;5114977;28;20439;-70
2022/11/29 06:53:35;;;;;;;68.60;20.40;;;;;;;;;;5115498;28;20430;-70
2022/11/29 06:56:05;;;;;;;53.93;20.83;;;;;;;;;;5115268;28;20432;-70
2022/11/29 06:58:38;;;;;;;53.40;18.57;;;;;;;;;;5114890;28;20478;-70
2022/11/29 07:01:11;;;;;;;60.60;20.70;;;;;;;;;;5114908;28;20506;-70
2022/11/29 07:03:47;;;;;;;65.03;20.10;;;;;;;;;;5115358;28;20421;-70
2022/11/29 07:06:17;;;;;;;55.53;21.57;;;;;;;;;;5115361;28;20427;-70
2022/11/29 07:08:44;;;;;;;56.43;21.70;;;;;;;;;;5114655;28;20445;-70
2022/11/29 07:11:12;;;;;;;59.37;20.50;;;;;;;;;;5115216;28;20468;-70
2022/11/29 07:13:40;;;;;;;53.60;19.90;;;;;;;;;;5115396;28;20439;-70
2022/11/29 07:16:14;;;;;;;62.43;21.00;;;;;;;;;;5114516;28;20451;-70
2022/11/29 07:18:44;;;;;;;51.43;17.23;;;;;;;;;;5114675;28;20830;-69
2022/11/29 07:21:15;;;;;;;51.30;17.60;;;;;;;;;;5114371;28;20449;-70
2022/11/29 07:23:47;;;;;;;45.20;16.50;;;;;;;;;;5115302;28;20419;-70
2022/11/29 07:26:20;;;;;;;59.03;19.50;;;;;;;;;;5114718;28;20439;-70
2022/11/29 07:28:55;;;;;;;52.80;17.50;;;;;;;;;;5115147;28;20431;-70
2022/11/29 07:31:27;;;;;;;53.80;18.27;;;;;;;;;;5114775;28;20426;-70
2022/11/29 07:33:59;;;;;;;52.80;19.30;;;;;;;;;;5114680;28;20431;-70
2022/11/29 07:36:31;;;;;;;64.87;18.33;;;;;;;;;;5114447;28;20510;-70
2022/11/29 07:39:03;;;;;;;53.80;16.80;;;;;;;;;;5114093;28;20459;-70
2022/11/29 07:41:36;;;;;;;56.40;18.90;;;;;;;;;;5114625;28;20503;-70
2022/11/29 07:44:06;;;;;;;61.70;19.53;;;;;;;;;;5114537;28;20512;-70
2022/11/29 07:46:34;;;;;;;49.40;17.67;;;;;;;;;;5113988;28;20435;-70
2022/11/29 07:49:02;;;;;;;57.67;17.80;;;;;;;;;;5114063;28;20783;-70
2022/11/29 07:51:29;;;;;;;53.67;19.00;;;;;;;;;;5114569;28;20534;-70
2022/11/29 07:53:56;;;;;;;38.87;16.00;;;;;;;;;;5114495;28;20493;-70
2022/11/29 07:56:23;;;;;;;52.20;16.90;;;;;;;;;;5113798;28;20449;-70
2022/11/29 07:58:50;;;;;;;44.07;16.67;;;;;;;;;;5114120;28;20575;-70
2022/11/29 08:01:18;;;;;;;50.93;18.03;;;;;;;;;;5114476;28;20439;-69
2022/11/29 08:03:46;;;;;;;59.87;17.70;;;;;;;;;;5113832;28;20449;-70
2022/11/29 08:06:13;;;;;;;47.30;14.57;;;;;;;;;;5114402;28;20527;-69
2022/11/29 08:08:41;;;;;;;49.97;16.40;;;;;;;;;;5114131;28;20452;-69
2022/11/29 08:11:11;;;;;;;38.93;14.60;;;;;;;;;;5113887;28;20463;-70
2022/11/29 08:13:38;;;;;;;43.07;14.30;;;;;;;;;;5113676;28;20439;-70
2022/11/29 08:16:06;;;;;;;50.87;14.83;;;;;;;;;;5114206;28;20478;-69
2022/11/29 08:18:33;;;;;;;53.30;14.37;;;;;;;;;;5114727;28;20481;-70
2022/11/29 08:21:05;;;;;;;45.90;14.90;;;;;;;;;;5113697;28;20970;-70
2022/11/29 08:23:32;;;;;;;48.57;15.00;;;;;;;;;;5114345;28;20419;-70
2022/11/29 08:26:00;;;;;;;45.13;15.50;;;;;;;;;;5114036;28;20438;-70
2022/11/29 08:28:27;;;;;;;40.43;15.00;;;;;;;;;;5113959;28;20438;-70
2022/11/29 08:31:01;;;;;;;42.03;14.27;;;;;;;;;;5117026;28;20447;-70
2022/11/29 08:33:28;;;;;;;44.97;15.47;;;;;;;;;;5118243;28;20438;-70
2022/11/29 08:35:55;;;;;;;47.05;14.50;;;;;;;;;;5117936;28;20791;-70
2022/11/29 08:38:24;;;;;;;38.90;13.70;;;;;;;;;;5117451;28;20222;-70
2022/11/29 08:40:51;;;;;;;43.20;13.47;;;;;;;;;;5117503;28;20445;-70
2022/11/29 08:43:18;;;;;;;37.73;14.87;;;;;;;;;;5117711;28;20982;-70
2022/11/29 08:45:45;;;;;;;34.33;12.20;;;;;;;;;;5117827;28;20444;-70
2022/11/29 08:48:14;;;;;;;43.17;13.80;;;;;;;;;;5117526;28;20443;-70
2022/11/29 08:50:41;;;;;;;45.20;14.77;;;;;;;;;;5117240;28;20443;-70
2022/11/29 08:55:59;;;;;;;39.37;14.70;;;;;;;;;;5117449;28;20498;-70
2022/11/29 08:58:26;;;;;;;37.37;13.50;;;;;;;;;;5117240;28;20473;-70
2022/11/29 09:00:54;;;;;;;41.03;14.60;;;;;;;;;;5117213;28;20443;-70
2022/11/29 09:06:07;;;;;;;35.77;15.33;;;;;;;;;;5117439;28;20406;-70
2022/11/29 09:08:34;;;;;;;39.03;14.70;;;;;;;;;;5117320;28;20442;-70
2022/11/29 09:11:07;;;;;;;46.57;15.00;;;;;;;;;;5116607;28;20465;-70
2022/11/29 09:13:34;;;;;;;46.50;16.43;;;;;;;;;;5117420;28;20780;-70
2022/11/29 09:16:06;;;;;;;45.67;16.50;;;;;;;;;;5117264;28;20437;-70
2022/11/29 09:18:33;;;;;;;49.13;17.73;;;;;;;;;;5117334;28;20469;-70
2022/11/29 09:21:01;;;;;;;41.80;18.63;;;;;;;;;;5117069;28;20432;-70
2022/11/29 09:23:28;;;;;;;47.27;16.63;;;;;;;;;;5116632;28;20999;-71
2022/11/29 09:25:55;;;;;;;38.23;16.27;;;;;;;;;;5117078;28;20443;-70
2022/11/29 09:28:24;;;;;;;53.53;19.73;;;;;;;;;;5116957;28;20435;-70
2022/11/29 09:30:51;;;;;;;44.97;16.50;;;;;;;;;;5117233;28;20530;-70
2022/11/29 09:33:18;;;;;;;43.47;19.40;;;;;;;;;;5116742;28;20517;-69
2022/11/29 09:35:45;;;;;;;70.80;19.23;;;;;;;;;;5116895;28;20527;-70
2022/11/29 09:38:13;;;;;;;54.50;18.70;;;;;;;;;;5116938;28;20438;-70
2022/11/29 09:40:43;;;;;;;41.50;16.53;;;;;;;;;;5117023;28;20449;-69
2022/11/29 09:43:18;;;;;;;53.47;18.40;;;;;;;;;;5116660;28;20475;-70
2022/11/29 09:45:50;;;;;;;48.87;16.90;;;;;;;;;;5116563;28;20437;-70
2022/11/29 09:48:25;;;;;;;48.40;17.13;;;;;;;;;;5116272;28;20431;-69
2022/11/29 09:50:55;;;;;;;51.60;17.30;;;;;;;;;;5116707;28;20422;-69
2022/11/29 09:53:42;;;;;;;42.20;17.73;;;;;;;;;;5116415;28;20443;-69
2022/11/29 09:56:16;;;;;;;57.90;19.10;;;;;;;;;;5116917;28;20784;-69
2022/11/29 09:58:46;;;;;;;44.00;17.03;;;;;;;;;;5116437;28;20901;-69
2022/11/29 10:01:19;;;;;;;46.70;20.30;;;;;;;;;;5116970;28;20422;-70
2022/11/29 10:03:50;;;;;;;63.07;20.63;;;;;;;;;;5115964;28;20680;-69
2022/11/29 10:06:20;;;;;;;50.93;18.50;;;;;;;;;;5117079;28;20427;-69
2022/11/29 10:08:49;;;;;;;56.30;21.03;;;;;;;;;;5115847;28;20531;-69
2022/11/29 10:11:19;;;;;;;52.90;19.57;;;;;;;;;;5116365;28;20438;-70
2022/11/29 10:13:49;;;;;;;44.47;17.87;;;;;;;;;;5116306;28;20438;-69
2022/11/29 10:16:19;;;;;;;51.13;18.90;;;;;;;;;;5115885;28;20420;-70
2022/11/29 10:18:49;;;;;;;61.30;18.93;;;;;;;;;;5116119;28;20793;-70
2022/11/29 10:21:18;;;;;;;51.73;20.37;;;;;;;;;;5115685;28;20438;-69
2022/11/29 10:23:48;;;;;;;56.57;18.27;;;;;;;;;;5116075;28;20468;-69
2022/11/29 10:26:16;;;;;;;52.93;19.70;;;;;;;;;;5116155;28;20435;-69
2022/11/29 10:28:46;;;;;;;47.40;18.07;;;;;;;;;;5115347;28;20443;-70
2022/11/29 10:31:16;;;;;;;46.23;18.07;;;;;;;;;;5115674;28;20442;-69
2022/11/29 10:33:46;;;;;;;59.37;17.93;;;;;;;;;;5115330;28;20444;-69
2022/11/29 10:36:16;;;;;;;46.50;15.47;;;;;;;;;;5116154;28;20545;-69
2022/11/29 10:38:44;;;;;;;51.67;16.77;;;;;;;;;;5115179;28;20451;-69
2022/11/29 10:41:15;;;;;;;49.80;18.35;;;;;;;;;;5115251;28;20928;-69
2022/11/29 10:43:42;;;;;;;59.03;16.23;;;;;;;;;;5115761;28;20678;-69
2022/11/29 10:46:14;;;;;;;48.17;16.87;;;;;;;;;;5115692;28;20835;-69
2022/11/29 10:48:41;;;;;;;44.20;18.20;;;;;;;;;;5115609;28;20854;-69
2022/11/29 10:51:13;;;;;;;50.37;17.97;;;;;;;;;;5115193;28;20938;-69
2022/11/29 10:53:40;;;;;;;47.50;20.17;;;;;;;;;;5114992;28;20476;-69
2022/11/29 10:56:09;;;;;;;55.03;19.03;;;;;;;;;;5114939;28;20480;-69
2022/11/29 10:58:36;;;;;;;52.37;19.70;;;;;;;;;;5114963;28;20450;-69
2022/11/29 11:01:05;;;;;;;48.43;18.93;;;;;;;;;;5115750;28;20438;-70
2022/11/29 11:03:34;;;;;;;52.33;17.90;;;;;;;;;;5114782;28;20439;-70
2022/11/29 11:06:04;;;;;;;67.13;18.67;;;;;;;;;;5115057;28;20439;-69
2022/11/29 11:08:34;;;;;;;61.47;18.27;;;;;;;;;;5115587;28;20514;-70
2022/11/29 11:11:03;;;;;;;64.30;18.20;;;;;;;;;;5114810;28;20443;-70
2022/11/29 11:13:32;;;;;;;55.33;18.53;;;;;;;;;;5114388;28;20503;-70
2022/11/29 11:16:07;;;;;;;48.77;18.30;;;;;;;;;;5114892;28;20473;-69
2022/11/29 11:18:35;;;;;;;54.60;17.03;;;;;;;;;;5115017;28;20427;-69
2022/11/29 11:21:02;;;;;;;64.17;20.80;;;;;;;;;;5114661;28;20485;-70
2022/11/29 11:23:30;;;;;;;62.17;18.10;;;;;;;;;;5115129;28;20435;-70
2022/11/29 11:26:01;;;;;;;50.65;18.80;;;;;;;;;;5114729;28;20435;-70
2022/11/29 11:28:29;;;;;;;41.77;15.70;;;;;;;;;;5114905;28;20186;-69
2022/11/29 11:30:58;;;;;;;41.83;14.17;;;;;;;;;;5114336;28;20534;-69
2022/11/29 11:33:26;;;;;;;39.70;15.90;;;;;;;;;;5114158;28;20443;-69
2022/11/29 11:36:04;;;;;;;35.63;14.00;;;;;;;;;;5114636;28;20439;-69
2022/11/29 11:38:32;;;;;;;30.33;13.10;;;;;;;;;;5114068;28;20445;-69
2022/11/29 11:41:14;;;;;;;43.90;15.07;;;;;;;;;;5114463;28;20577;-69
2022/11/29 11:43:42;;;;;;;42.50;13.70;;;;;;;;;;5114609;28;20467;-69
2022/11/29 11:46:09;;;;;;;44.70;15.57;;;;;;;;;;5114626;28;20201;-70
2022/11/29 11:48:36;;;;;;;50.00;17.53;;;;;;;;;;5114434;28;20806;-69
2022/11/29 11:51:03;;;;;;;53.10;18.10;;;;;;;;;;5114008;28;20955;-70
2022/11/29 11:53:32;;;;;;;59.77;18.73;;;;;;;;;;5114208;28;20773;-69
2022/11/29 11:56:00;;;;;;;55.25;19.95;;;;;;;;;;5114570;28;20526;-69
2022/11/29 11:58:29;;;;;;;54.90;17.43;;;;;;;;;;5114133;28;20193;-70
2022/11/29 12:00:57;;;;;;;67.57;21.10;;;;;;;;;;5113880;28;20481;-69
2022/11/29 12:03:32;;;;;;;58.00;19.50;;;;;;;;;;5113404;28;21023;-69
2022/11/29 12:06:01;;;;;;;56.37;20.00;;;;;;;;;;5113835;28;20437;-70
2022/11/29 12:08:29;;;;;;;61.83;20.60;;;;;;;;;;5114381;28;20430;-69
2022/11/29 12:10:57;;;;;;;60.53;18.87;;;;;;;;;;5113932;28;20589;-69
2022/11/29 12:13:27;;;;;;;70.80;20.93;;;;;;;;;;5113714;28;20478;-69
2022/11/29 12:15:57;;;;;;;61.53;21.20;;;;;;;;;;5113880;28;20442;-69
2022/11/29 12:18:27;;;;;;;61.00;20.50;;;;;;;;;;5114687;28;20784;-69
2022/11/29 12:20:56;;;;;;;60.45;20.50;;;;;;;;;;5114145;28;20231;-69
2022/11/29 12:23:27;;;;;;;58.80;19.38;;;;;;;;;;5113634;28;20200;-70
2022/11/29 12:25:57;;;;;;;67.60;19.83;;;;;;;;;;5114002;28;20272;-69
2022/11/29 12:28:27;;;;;;;62.33;21.10;;;;;;;;;;5114551;28;20441;-71
2022/11/29 12:31:01;;;;;;;57.10;21.63;;;;;;;;;;5113755;28;20453;-70
2022/11/29 12:33:32;;;;;;;51.80;19.33;;;;;;;;;;5114076;28;20183;-69
2022/11/29 12:36:06;;;;;;;60.77;19.47;;;;;;;;;;5113551;28;20998;-69
2022/11/29 12:38:42;;;;;;;57.20;18.30;;;;;;;;;;5114006;28;20427;-69
2022/11/29 12:41:15;;;;;;;58.07;19.47;;;;;;;;;;5113750;28;20580;-69
2022/11/29 12:43:50;;;;;;;55.40;19.43;;;;;;;;;;5114433;28;20790;-69
2022/11/29 12:46:21;;;;;;;46.23;16.70;;;;;;;;;;5113709;28;20511;-70
2022/11/29 12:48:52;;;;;;;46.13;16.40;;;;;;;;;;5113523;28;20922;-69
2022/11/29 12:51:23;;;;;;;45.00;17.20;;;;;;;;;;5113630;28;20526;-69
2022/11/29 12:53:56;;;;;;;49.50;16.40;;;;;;;;;;5114441;28;20448;-69
2022/11/29 12:56:26;;;;;;;49.07;19.03;;;;;;;;;;5113575;28;20433;-70
2022/11/29 12:59:07;;;;;;;49.17;17.97;;;;;;;;;;5113834;28;20442;-69
2022/11/29 13:01:40;;;;;;;47.53;17.00;;;;;;;;;;5113811;28;20560;-70
2022/11/29 13:04:11;;;;;;;46.10;15.90;;;;;;;;;;5113867;28;20511;-70
2022/11/29 13:06:42;;;;;;;38.93;16.00;;;;;;;;;;5113141;28;20431;-69
2022/11/29 13:09:24;;;;;;;45.17;16.57;;;;;;;;;;5113802;28;20522;-70
2022/11/29 13:11:55;;;;;;;45.60;17.37;;;;;;;;;;5113091;28;20453;-69
2022/11/29 13:14:28;;;;;;;53.13;17.77;;;;;;;;;;5113862;28;20518;-69
2022/11/29 13:16:59;;;;;;;39.83;14.97;;;;;;;;;;5116915;28;20464;-69
2022/11/29 13:19:30;;;;;;;42.20;15.03;;;;;;;;;;5116769;28;20443;-69
2022/11/29 13:22:03;;;;;;;46.27;17.77;;;;;;;;;;5116951;28;20426;-69
2022/11/29 13:24:33;;;;;;;37.77;16.50;;;;;;;;;;5117175;28;20744;-69
2022/11/29 13:27:01;;;;;;;36.50;15.03;;;;;;;;;;5116780;28;20444;-69
2022/11/29 13:29:29;;;;;;;50.43;16.60;;;;;;;;;;5117128;28;20448;-69
2022/11/29 13:31:58;;;;;;;47.53;16.40;;;;;;;;;;5116939;28;20861;-69
2022/11/29 13:34:29;;;;;;;38.20;15.93;;;;;;;;;;5116966;28;20442;-69
2022/11/29 13:37:05;;;;;;;41.67;16.70;;;;;;;;;;5116975;28;20419;-69
2022/11/29 13:39:50;;;;;;;41.85;15.98;;;;;;;;;;5117411;28;20765;-69
2022/11/29 13:42:20;;;;;;;34.33;16.10;;;;;;;;;;5116965;28;20220;-69
2022/11/29 13:44:51;;;;;;;40.37;15.17;;;;;;;;;;5116099;28;20459;-71
2022/11/29 13:47:20;;;;;;;38.33;14.80;;;;;;;;;;5116437;28;20439;-70
2022/11/29 13:49:53;;;;;;;38.77;16.33;;;;;;;;;;5116336;28;20450;-69
2022/11/29 13:52:28;;;;;;;45.73;16.20;;;;;;;;;;5116263;28;20444;-68
2022/11/29 13:55:10;;;;;;;39.87;15.97;;;;;;;;;;5116774;28;20420;-69
2022/11/29 13:57:50;;;;;;;48.00;15.20;;;;;;;;;;5114073;28;20451;-68
2022/11/29 14:00:31;;;;;;;41.73;17.10;;;;;;;;;;5115838;28;20480;-68
2022/11/29 14:03:20;;;;;;;42.80;14.30;;;;;;;;;;5116595;28;20534;-68
2022/11/29 14:05:48;;;;;;;36.03;14.77;;;;;;;;;;5116559;28;20419;-68
2022/11/29 14:08:25;;;;;;;41.78;14.20;;;;;;;;;;5116262;28;20646;-69
2022/11/29 14:10:53;;;;;;;38.00;14.37;;;;;;;;;;5116192;28;20197;-68
2022/11/29 14:13:23;;;;;;;32.03;12.52;;;;;;;;;;5114945;28;20439;-68
2022/11/29 14:15:55;;;;;;;33.50;14.30;;;;;;;;;;5116300;28;20214;-69
2022/11/29 14:18:43;;;;;;;38.67;14.47;;;;;;;;;;5116041;28;20431;-69
2022/11/29 14:21:12;;;;;;;34.57;14.90;;;;;;;;;;5089903;28;20489;-68
2022/11/29 14:23:45;;;;;;;40.27;15.10;;;;;;;;;;5115560;28;20447;-68
2022/11/29 14:26:29;;;;;;;36.43;14.00;;;;;;;;;;5115517;28;20915;-68
2022/11/29 14:28:57;;;;;;;30.37;13.13;;;;;;;;;;5114930;28;20445;-68
2022/11/29 14:31:42;;;;;;;33.77;13.83;;;;;;;;;;5116196;28;20533;-69
2022/11/29 14:34:13;;;;;;;31.23;15.20;;;;;;;;;;5115374;28;20929;-69
2022/11/29 14:36:50;;;;;;;25.43;14.30;;;;;;;;;;5115882;28;20763;-68
2022/11/29 14:39:31;;;;;;;31.97;14.70;;;;;;;;;;5115631;28;20951;-69
2022/11/29 14:42:04;;;;;;;28.60;14.07;;;;;;;;;;5114761;28;20902;-69
2022/11/29 14:44:32;;;;;;;30.77;14.53;;;;;;;;;;5115287;28;20438;-68
2022/11/29 14:47:03;;;;;;;37.60;15.10;;;;;;;;;;5114849;28;20446;-68
2022/11/29 14:49:31;;;;;;;37.30;16.03;;;;;;;;;;5115525;28;20852;-69